Time;durP1;ratioP1;P1;durP2;ratioP2;P2;SDS_P1;SDS_P2;PMS_P1;PMS_P2;Temp;Humidity;BMP_temperature;BMP_pressure;BME280_temperature;BME280_humidity;BME280_pressure;Samples;Min_cycle;Max_cycle;Signal;HPM_P1;HPM_P2
2021/05/13 00:01:05;;;;;;;3.03;1.60;;;;;;;14.68;41.51;99134.73;128060;1098;101013;-81
2021/05/13 00:03:55;;;;;;;3.23;1.87;;;;;;;14.61;41.50;99131.69;128209;1098;101409;-81
2021/05/13 00:06:43;;;;;;;4.00;1.97;;;;;;;14.57;41.76;99132.00;128200;1098;100781;-82
2021/05/13 00:09:41;;;;;;;4.07;2.03;;;;;;;14.52;42.13;99134.91;128126;1098;100728;-82
2021/05/13 00:15:40;;;;;;;4.93;1.73;;;;;;;14.39;42.95;99134.85;128047;1098;101153;-82
2021/05/13 00:18:29;;;;;;;4.63;2.00;;;;;;;14.33;42.96;99129.15;128038;1098;100727;-82
2021/05/13 00:21:17;;;;;;;6.20;1.90;;;;;;;14.27;42.78;99130.40;128004;1098;100755;-82
2021/05/13 00:24:08;;;;;;;2.93;1.60;;;;;;;14.22;42.82;99137.73;128020;1098;100863;-82
2021/05/13 00:27:02;;;;;;;4.23;1.50;;;;;;;14.15;43.17;99132.02;128032;1098;101095;-82
2021/05/13 00:29:49;;;;;;;6.73;1.60;;;;;;;14.09;43.31;99132.42;128062;1100;100709;-82
2021/05/13 00:32:37;;;;;;;;;;;;;;;14.04;43.98;99128.42;128152;1098;100911;-82
2021/05/13 00:35:25;;;;;;;2.60;1.60;;;;;;;13.96;44.39;99123.66;128217;1098;100863;-82
2021/05/13 00:38:13;;;;;;;2.60;1.43;;;;;;;13.91;44.42;99133.59;128028;1098;100681;-82
2021/05/13 00:41:00;;;;;;;5.73;1.40;;;;;;;13.86;44.26;99126.03;128055;1098;100829;-82
2021/05/13 00:43:50;;;;;;;5.00;1.43;;;;;;;13.81;44.42;99125.46;128245;1098;100738;-82
2021/05/13 00:46:39;;;;;;;2.87;1.63;;;;;;;13.76;44.67;99124.92;128233;1098;101825;-82
2021/05/13 00:49:30;;;;;;;2.30;1.50;;;;;;;13.74;45.04;99131.20;127998;1098;101011;-81
2021/05/13 00:52:20;;;;;;;3.30;1.50;;;;;;;13.69;45.10;99117.55;128191;1098;100762;-82
2021/05/13 00:55:10;;;;;;;1.57;1.37;;;;;;;13.64;44.99;99117.81;127974;1098;100907;-82
2021/05/13 00:57:58;;;;;;;5.97;1.40;;;;;;;13.62;44.93;99114.45;128299;1098;100655;-81
2021/05/13 01:00:53;;;;;;;2.87;1.30;;;;;;;13.58;45.26;99112.97;127962;1099;101783;-81
2021/05/13 01:03:41;;;;;;;3.87;1.83;;;;;;;13.53;45.30;99118.50;128207;1098;100845;-82
2021/05/13 01:06:29;;;;;;;4.93;1.90;;;;;;;13.50;45.26;99107.38;128015;1098;100097;-82
2021/05/13 01:09:23;;;;;;;1.80;1.60;;;;;;;13.46;45.47;99108.48;128222;1098;102635;-82
2021/05/13 01:12:17;;;;;;;5.93;1.80;;;;;;;13.42;45.78;99109.62;128024;1098;100752;-81
2021/05/13 01:15:21;;;;;;;3.00;1.50;;;;;;;13.37;46.42;99103.83;128070;1098;101080;-81
2021/05/13 01:20:57;;;;;;;2.80;1.50;;;;;;;13.25;46.52;99098.40;128075;1098;101075;-82
2021/05/13 01:23:46;;;;;;;3.50;1.60;;;;;;;13.20;46.48;99099.63;128034;1098;100841;-82
2021/05/13 01:26:34;;;;;;;2.07;1.50;;;;;;;13.15;46.67;99097.27;128054;1098;100788;-82
2021/05/13 01:29:24;;;;;;;2.17;1.57;;;;;;;13.11;47.00;99082.69;128097;1098;100756;-82
2021/05/13 01:32:18;;;;;;;4.93;1.30;;;;;;;13.06;47.04;99089.95;128186;1098;100837;-82
2021/05/13 01:35:06;;;;;;;4.53;1.70;;;;;;;13.04;46.90;99070.05;128222;1098;100852;-82
2021/05/13 01:38:24;;;;;;;5.70;1.70;;;;;;;12.97;47.10;99075.66;128005;1098;101651;-82
2021/05/13 01:41:12;;;;;;;2.67;1.20;;;;;;;12.95;47.06;99068.84;128210;1098;101041;-82
2021/05/13 01:43:59;;;;;;;2.90;1.67;;;;;;;12.92;47.33;99061.16;128002;1098;101756;-82
2021/05/13 01:47:00;;;;;;;2.50;1.43;;;;;;;12.88;47.38;99073.59;128055;1098;100727;-82
2021/05/13 01:49:50;;;;;;;3.87;1.33;;;;;;;12.85;47.58;99055.45;128115;1098;100894;-82
2021/05/13 01:52:46;;;;;;;6.53;1.50;;;;;;;12.83;47.82;99059.11;128184;1098;100798;-82
2021/05/13 01:55:36;;;;;;;3.80;1.50;;;;;;;12.79;47.61;99058.45;128196;1098;100766;-82
2021/05/13 01:58:24;;;;;;;4.40;1.50;;;;;;;12.75;47.94;99046.50;128019;1098;101468;-82
2021/05/13 02:01:18;;;;;;;1.83;1.47;;;;;;;12.72;48.07;99046.66;128022;1099;101141;-82
2021/05/13 02:04:06;;;;;;;2.50;1.43;;;;;;;12.70;48.03;99044.13;128217;1098;100911;-83
2021/05/13 02:06:57;;;;;;;6.57;1.30;;;;;;;12.66;48.10;99036.56;128025;1099;100804;-82
2021/05/13 02:09:46;;;;;;;13.30;1.70;;;;;;;12.65;47.73;99030.50;128181;1098;100648;-82
2021/05/13 02:12:33;;;;;;;3.00;1.70;;;;;;;12.63;48.19;99034.98;128026;1098;100793;-82
2021/05/13 02:15:21;;;;;;;3.30;1.47;;;;;;;12.61;48.02;99018.55;128006;1098;100856;-82
2021/05/13 02:18:12;;;;;;;2.97;1.43;;;;;;;12.59;48.58;99035.27;128141;1098;100990;-82
2021/05/13 02:21:00;;;;;;;3.87;1.73;;;;;;;12.53;48.50;99022.53;128232;1098;101087;-82
2021/05/13 02:23:48;;;;;;;2.70;1.53;;;;;;;12.49;48.47;99023.66;128189;1098;100920;-82
2021/05/13 02:26:37;;;;;;;5.30;1.97;;;;;;;12.44;48.55;99016.09;128226;1098;100979;-82
2021/05/13 02:29:24;;;;;;;5.20;2.00;;;;;;;12.43;48.58;99018.80;128213;1098;100939;-82
2021/05/13 02:32:12;;;;;;;5.70;2.70;;;;;;;12.40;48.59;99017.20;128144;1098;100859;-82
2021/05/13 02:34:59;;;;;;;;;;;;;;;12.37;49.01;99020.81;128137;1098;100787;-82
2021/05/13 02:37:47;;;;;;;3.80;2.00;;;;;;;12.33;49.03;99018.48;128256;1098;101078;-82
2021/05/13 02:40:35;;;;;;;5.70;1.83;;;;;;;12.29;49.02;99016.98;128023;1098;101579;-82
2021/05/13 02:43:26;;;;;;;3.07;1.53;;;;;;;12.27;49.10;99016.23;128191;1098;100795;-82
2021/05/13 02:46:14;;;;;;;9.80;2.57;;;;;;;12.23;49.47;99009.52;128025;1098;100823;-82
2021/05/13 02:49:03;;;;;;;4.07;1.60;;;;;;;12.20;49.19;99010.51;128068;1098;100977;-82
2021/05/13 02:51:51;;;;;;;3.33;1.47;;;;;;;12.19;49.64;99010.59;128068;1098;100678;-82
2021/05/13 02:54:39;;;;;;;;;;;;;;;12.15;49.32;98996.88;128262;1098;101891;-82
2021/05/13 02:57:26;;;;;;;4.97;1.73;;;;;;;12.14;49.30;98999.58;128013;1098;100744;-82
2021/05/13 03:03:05;;;;;;;2.90;1.40;;;;;;;12.12;49.31;98993.60;128030;1099;100810;-82
2021/05/13 03:05:54;;;;;;;;;;;;;;;12.11;49.33;98997.98;128045;1098;100745;-82
2021/05/13 03:08:42;;;;;;;3.70;1.50;;;;;;;12.09;49.40;98990.23;128235;1098;101933;-83
2021/05/13 03:11:30;;;;;;;3.27;1.70;;;;;;;12.08;49.71;98992.95;128018;1098;101555;-82
2021/05/13 03:14:18;;;;;;;3.53;1.60;;;;;;;12.05;49.69;98987.91;128095;1098;100816;-82
2021/05/13 03:17:06;;;;;;;2.57;1.50;;;;;;;12.02;49.63;98988.89;128221;1098;100723;-82
2021/05/13 03:19:58;;;;;;;6.10;2.33;;;;;;;12.00;49.76;98982.92;128046;1098;100820;-82
2021/05/13 03:22:53;;;;;;;3.67;1.87;;;;;;;12.00;50.14;98976.85;128014;1099;101457;-82
2021/05/13 03:26:00;;;;;;;7.80;2.20;;;;;;;11.96;50.04;98978.81;128003;1098;100862;-82
2021/05/13 03:28:47;;;;;;;5.17;2.10;;;;;;;11.96;49.93;98981.42;128061;1098;100642;-82
2021/05/13 03:31:35;;;;;;;4.57;1.73;;;;;;;11.96;50.00;98973.58;128015;1098;100756;-82
2021/05/13 03:34:35;;;;;;;3.93;2.13;;;;;;;11.96;50.19;98978.81;128074;1098;100718;-82
2021/05/13 03:37:26;;;;;;;;;;;;;;;11.95;49.99;98982.36;128252;1098;101895;-82
2021/05/13 03:40:28;;;;;;;3.60;1.60;;;;;;;11.93;49.88;98981.61;128019;1098;100833;-82
2021/05/13 03:43:30;;;;;;;3.70;2.27;;;;;;;11.95;49.81;98977.13;128210;1097;100712;-82
2021/05/13 03:46:19;;;;;;;4.00;2.43;;;;;;;12.01;50.01;98978.53;128287;1098;100750;-83
2021/05/13 03:49:06;;;;;;;3.47;2.33;;;;;;;12.05;49.92;98972.22;128065;1099;100755;-82
2021/05/13 03:51:54;;;;;;;3.40;2.05;;;;;;;12.06;49.82;98966.91;128255;1097;100725;-81
2021/05/13 03:54:42;;;;;;;8.93;1.97;;;;;;;12.06;50.07;98972.13;128091;1098;100676;-82
2021/05/13 03:57:32;;;;;;;;;;;;;;;12.05;49.74;98962.61;128079;1098;100751;-82
2021/05/13 04:01:14;;;;;;;4.37;2.30;;;;;;;12.05;49.79;98957.38;128251;1098;100621;-81
2021/05/13 04:03:39;;;;;;;2.20;1.77;;;;;;;12.10;49.62;98957.11;128132;1098;100686;-82
2021/05/13 04:06:27;;;;;;;4.60;1.77;;;;;;;12.15;49.80;98962.05;128010;1098;101175;-81
2021/05/13 04:09:15;;;;;;;3.93;2.10;;;;;;;12.20;49.46;98960.84;128223;1097;100751;-82
2021/05/13 04:12:06;;;;;;;4.37;2.07;;;;;;;12.27;49.13;98961.34;128256;1098;100929;-81
2021/05/13 04:14:55;;;;;;;5.90;2.30;;;;;;;12.32;49.24;98954.05;128054;1098;100849;-81
2021/05/13 04:17:43;;;;;;;4.17;1.90;;;;;;;12.33;49.17;98951.34;128241;1098;100823;-81
2021/05/13 04:20:30;;;;;;;;;;;;;;;12.38;49.29;98953.67;128075;1099;100846;-81
2021/05/13 04:23:21;;;;;;;3.60;1.83;;;;;;;12.40;48.99;98954.45;128021;1098;100840;-81
2021/05/13 04:26:12;;;;;;;3.57;2.23;;;;;;;12.45;49.10;98939.32;128039;1098;100767;-81
2021/05/13 04:29:00;;;;;;;7.93;1.90;;;;;;;12.50;48.88;98946.88;128018;1098;100675;-81
2021/05/13 04:31:48;;;;;;;2.67;2.00;;;;;;;12.60;49.05;98942.78;128064;1098;100941;-81
2021/05/13 04:34:36;;;;;;;8.57;3.77;;;;;;;12.75;49.15;98938.36;128259;1098;101466;-81
2021/05/13 04:37:24;;;;;;;3.70;1.67;;;;;;;12.87;48.69;98930.60;128031;1098;100840;-82
2021/05/13 04:40:12;;;;;;;3.20;1.93;;;;;;;12.96;48.38;98937.05;128041;1098;100725;-82
2021/05/13 04:43:00;;;;;;;6.17;3.60;;;;;;;13.03;48.20;98927.87;128054;1098;100829;-82
2021/05/13 04:45:49;;;;;;;4.33;2.13;;;;;;;13.11;47.71;98933.48;128260;1098;100659;-81
2021/05/13 04:49:13;;;;;;;2.90;1.97;;;;;;;13.17;47.46;98922.60;128059;1098;100855;-82
2021/05/13 04:51:47;;;;;;;7.63;4.37;;;;;;;13.28;47.77;98911.45;128066;1098;100811;-82
2021/05/13 04:54:38;;;;;;;3.43;1.90;;;;;;;13.42;47.14;98915.81;128258;1098;100776;-82
2021/05/13 04:57:36;;;;;;;7.90;1.90;;;;;;;13.51;47.12;98907.38;128026;1098;101499;-82
2021/05/13 05:00:29;;;;;;;3.13;2.00;;;;;;;13.69;47.02;98908.78;128255;1098;100722;-82
2021/05/13 05:03:17;;;;;;;4.63;2.23;;;;;;;13.91;46.65;98909.03;128017;1098;101923;-82
2021/05/13 05:06:05;;;;;;;;;;;;;;;14.08;45.71;98889.54;128033;1099;100956;-82
2021/05/13 05:08:55;;;;;;;6.63;2.48;;;;;;;14.12;45.78;98892.79;128221;1098;101390;-82
2021/05/13 05:11:43;;;;;;;6.03;2.20;;;;;;;14.39;46.03;98898.78;128074;1099;100782;-82
2021/05/13 05:14:31;;;;;;;4.87;2.40;;;;;;;15.36;44.97;98885.72;128052;1098;100751;-82
2021/05/13 05:17:19;;;;;;;4.60;2.17;;;;;;;17.52;42.80;98878.53;128034;1100;100843;-82
2021/05/13 05:20:08;;;;;;;6.70;2.10;;;;;;;19.90;38.99;98880.69;128077;1098;100814;-82
2021/05/13 05:22:55;;;;;;;5.00;2.40;;;;;;;21.82;36.12;98869.27;128250;1098;101004;-82
2021/05/13 05:25:44;;;;;;;3.97;1.80;;;;;;;23.67;34.07;98864.11;128040;1098;100991;-82
2021/05/13 05:28:31;;;;;;;7.03;2.00;;;;;;;25.08;29.36;98858.13;128216;1098;100781;-82
2021/05/13 05:31:19;;;;;;;4.33;1.80;;;;;;;26.30;29.77;98849.14;128251;1098;101006;-82
2021/05/13 05:34:07;;;;;;;4.10;2.47;;;;;;;27.56;27.36;98851.52;127993;1098;101062;-82
2021/05/13 05:36:58;;;;;;;3.03;1.80;;;;;;;28.29;26.60;98844.11;128062;1099;100901;-83
2021/05/13 05:39:46;;;;;;;8.40;1.93;;;;;;;29.66;26.79;98839.48;128246;1098;101116;-83
2021/05/13 05:42:38;;;;;;;8.07;1.77;;;;;;;31.16;25.31;98832.31;128001;1098;100725;-82
2021/05/13 05:45:26;;;;;;;5.80;2.20;;;;;;;32.33;23.72;98830.84;128227;1098;100783;-82
2021/05/13 05:48:14;;;;;;;11.90;1.80;;;;;;;33.12;21.92;98831.76;128069;1098;101012;-83
2021/05/13 05:51:02;;;;;;;4.90;2.07;;;;;;;33.82;20.08;98829.25;128058;1098;100705;-83
2021/05/13 05:53:50;;;;;;;11.53;2.00;;;;;;;33.85;18.22;98842.33;128021;1099;100797;-83
2021/05/13 05:56:39;;;;;;;8.73;1.80;;;;;;;34.13;19.60;98839.77;128062;1098;100696;-83
2021/05/13 05:59:27;;;;;;;3.83;1.70;;;;;;;34.55;18.58;98834.22;128276;1098;100692;-83
2021/05/13 06:02:21;;;;;;;7.97;1.90;;;;;;;34.95;18.42;98825.29;128005;1098;101096;-83
2021/05/13 06:05:11;;;;;;;4.63;1.57;;;;;;;35.04;17.55;98826.56;128168;1098;100747;-83
2021/05/13 06:08:05;;;;;;;8.50;3.10;;;;;;;35.53;18.50;98822.30;128253;1098;101007;-83
2021/05/13 06:10:53;;;;;;;9.30;2.60;;;;;;;36.22;17.80;98820.15;128044;1099;100850;-83
2021/05/13 06:13:41;;;;;;;8.80;4.37;;;;;;;37.12;17.81;98824.30;128208;1098;101642;-82
2021/05/13 06:16:32;;;;;;;8.43;2.97;;;;;;;37.83;16.54;98823.34;128150;1097;100695;-82
2021/05/13 06:19:20;;;;;;;6.20;3.03;;;;;;;38.48;15.45;98831.13;128190;1098;100782;-81
2021/05/13 06:22:25;;;;;;;4.20;2.13;;;;;;;38.83;15.74;98825.04;128052;1098;100852;-82
2021/05/13 06:25:17;;;;;;;7.30;2.73;;;;;;;38.90;14.08;98813.88;128066;1098;101163;-82
2021/05/13 06:28:07;;;;;;;4.73;2.93;;;;;;;38.66;14.82;98817.08;128029;1098;100737;-82
2021/05/13 06:30:54;;;;;;;3.27;2.00;;;;;;;38.67;14.28;98812.44;128001;1098;100815;-82
2021/05/13 06:33:42;;;;;;;3.77;1.40;;;;;;;38.32;13.66;98813.89;128242;1098;101116;-82
2021/05/13 06:36:30;;;;;;;6.33;2.70;;;;;;;38.15;14.43;98810.50;128242;1098;100838;-81
2021/05/13 06:39:17;;;;;;;6.53;2.10;;;;;;;38.56;14.35;98799.83;128019;1098;100858;-81
2021/05/13 06:42:07;;;;;;;4.60;1.70;;;;;;;39.10;14.27;98792.13;128179;1098;100741;-81
2021/05/13 06:44:55;;;;;;;4.27;1.40;;;;;;;39.40;13.67;98787.80;128159;1098;100917;-81
2021/05/13 06:47:43;;;;;;;3.77;1.47;;;;;;;39.29;13.19;98785.06;128046;1099;100881;-82
2021/05/13 06:50:31;;;;;;;6.00;2.27;;;;;;;39.29;13.73;98786.97;128043;1098;100667;-81
2021/05/13 06:53:18;;;;;;;6.57;2.23;;;;;;;39.95;13.71;98786.15;128222;1098;100954;-81
2021/05/13 06:56:06;;;;;;;6.27;1.83;;;;;;;40.44;13.56;98780.88;128030;1099;101533;-82
2021/05/13 06:58:53;;;;;;;3.13;1.63;;;;;;;40.94;13.03;98779.02;128012;1098;100872;-82
2021/05/13 07:01:41;;;;;;;5.83;1.73;;;;;;;41.10;12.43;98779.70;128231;1098;100877;-82
2021/05/13 07:04:29;;;;;;;15.67;8.63;;;;;;;41.32;12.48;98770.01;128012;1098;100763;-82
2021/05/13 07:07:18;;;;;;;11.43;5.57;;;;;;;41.43;12.44;98778.11;128237;1098;100849;-82
2021/05/13 07:10:07;;;;;;;7.63;2.13;;;;;;;41.39;10.54;98779.80;128225;1098;101597;-81
2021/05/13 07:12:55;;;;;;;4.23;1.70;;;;;;;40.42;11.14;98777.61;128177;1098;100817;-81
2021/05/13 07:15:50;;;;;;;5.40;3.53;;;;;;;39.98;11.79;98764.59;128243;1098;100800;-81
2021/05/13 07:18:37;;;;;;;5.00;2.00;;;;;;;39.35;11.36;98772.27;127978;1098;102433;-81
2021/05/13 07:21:24;;;;;;;9.13;2.07;;;;;;;38.43;11.50;98770.38;128241;1098;100691;-82
2021/05/13 07:24:12;;;;;;;4.70;1.40;;;;;;;37.74;11.62;98768.61;128250;1098;101727;-82
2021/05/13 07:27:00;;;;;;;3.47;1.70;;;;;;;37.13;12.62;98770.75;128202;1098;100984;-82
2021/05/13 07:29:48;;;;;;;10.17;2.00;;;;;;;37.06;13.23;98770.97;127979;1098;100980;-82
2021/05/13 07:32:35;;;;;;;2.73;1.43;;;;;;;36.85;12.75;98763.69;128220;1098;100759;-82
2021/05/13 07:35:23;;;;;;;4.73;1.57;;;;;;;36.98;13.59;98762.44;128148;1098;100974;-82
2021/05/13 07:38:10;;;;;;;3.63;1.73;;;;;;;37.37;13.41;98758.50;128041;1098;101459;-82
2021/05/13 07:40:59;;;;;;;4.77;2.57;;;;;;;38.03;13.49;98763.59;128100;1098;100898;-82
2021/05/13 07:43:49;;;;;;;5.33;2.00;;;;;;;38.15;12.24;98761.49;128136;1098;100821;-82
2021/05/13 07:46:38;;;;;;;6.47;2.07;;;;;;;37.77;12.30;98758.02;128143;1098;100847;-81
2021/05/13 07:49:31;;;;;;;6.73;2.00;;;;;;;37.24;12.13;98758.90;128148;1098;100787;-81
2021/05/13 07:52:18;;;;;;;5.87;1.30;;;;;;;36.48;12.53;98764.34;128002;1098;101956;-81
2021/05/13 07:55:07;;;;;;;3.23;1.17;;;;;;;36.00;13.10;98751.45;128173;1098;103421;-80
2021/05/13 07:57:55;;;;;;;6.77;1.47;;;;;;;35.71;13.82;98748.02;128069;1098;100834;-80
2021/05/13 08:00:42;;;;;;;4.27;1.53;;;;;;;36.01;14.22;98743.06;128153;1098;101068;-80
2021/05/13 08:03:30;;;;;;;3.93;1.37;;;;;;;36.41;13.71;98730.28;128070;1098;100773;-80
2021/05/13 08:06:17;;;;;;;3.87;1.10;;;;;;;36.91;13.16;98730.05;128200;1098;100860;-80
2021/05/13 08:09:05;;;;;;;3.43;1.33;;;;;;;37.10;12.96;98731.31;128074;1098;100763;-81
2021/05/13 08:11:52;;;;;;;6.43;1.80;;;;;;;36.92;12.44;98742.55;128018;1099;100999;-81
2021/05/13 08:14:40;;;;;;;3.87;1.70;;;;;;;36.70;13.03;98730.89;128006;1098;100811;-81
2021/05/13 08:17:29;;;;;;;3.40;1.60;;;;;;;36.90;13.78;98722.97;128241;1098;100814;-81
2021/05/13 08:20:17;;;;;;;3.60;1.27;;;;;;;37.36;13.11;98720.70;128250;1098;100742;-81
2021/05/13 08:23:06;;;;;;;3.70;2.10;;;;;;;37.78;13.25;98723.45;128228;1097;100705;-82
2021/05/13 08:25:54;;;;;;;4.87;1.60;;;;;;;37.65;12.06;98730.14;128183;1098;100757;-83
2021/05/13 08:28:42;;;;;;;3.10;1.73;;;;;;;37.55;12.92;98730.09;128071;1098;101091;-83
2021/05/13 08:31:30;;;;;;;3.87;2.57;;;;;;;37.54;13.16;98725.73;128217;1098;100768;-82
2021/05/13 08:34:19;;;;;;;3.20;1.53;;;;;;;37.60;12.34;98721.95;128015;1098;100750;-82
2021/05/13 08:37:06;;;;;;;7.93;3.00;;;;;;;37.67;12.70;98722.53;128195;1098;101135;-82
2021/05/13 08:39:54;;;;;;;3.30;1.90;;;;;;;37.76;12.29;98723.72;128247;1098;100688;-82
2021/05/13 08:42:41;;;;;;;5.57;3.50;;;;;;;37.62;11.83;98719.78;128085;1098;100845;-82
2021/05/13 08:45:33;;;;;;;6.17;3.30;;;;;;;37.23;12.13;98721.09;128225;1098;100640;-82
2021/05/13 08:48:25;;;;;;;4.00;1.40;;;;;;;37.05;12.29;98714.97;128211;1098;101475;-82
2021/05/13 08:51:13;;;;;;;4.63;1.50;;;;;;;36.84;11.33;98721.30;128033;1098;100983;-83
2021/05/13 08:54:01;;;;;;;5.87;1.30;;;;;;;35.80;11.74;98713.98;128243;1098;100220;-83
2021/05/13 08:56:48;;;;;;;5.83;1.97;;;;;;;35.04;12.39;98707.34;128034;1099;100922;-83
2021/05/13 08:59:41;;;;;;;3.77;1.30;;;;;;;34.41;13.16;98702.89;128110;1098;100751;-83
2021/05/13 09:02:29;;;;;;;4.20;2.60;;;;;;;34.05;13.58;98702.14;128042;1098;100770;-83
2021/05/13 09:05:17;;;;;;;2.77;1.03;;;;;;;33.86;13.24;98697.94;128128;1098;100887;-83
2021/05/13 09:08:05;;;;;;;4.17;2.23;;;;;;;33.75;14.20;98699.55;128046;1098;100829;-82
2021/05/13 09:10:53;;;;;;;5.33;1.10;;;;;;;33.05;13.61;98705.73;128022;1098;101246;-83
2021/05/13 09:13:41;;;;;;;4.10;2.00;;;;;;;32.61;14.26;98698.03;128107;1098;101255;-82
2021/05/13 09:16:35;;;;;;;4.17;1.67;;;;;;;32.17;14.32;98689.25;128032;1098;101013;-82
2021/05/13 09:19:33;;;;;;;4.60;1.57;;;;;;;32.38;14.69;98702.29;127970;1099;101135;-82
2021/05/13 09:22:25;;;;;;;5.60;2.77;;;;;;;32.57;14.96;98699.55;128049;1099;101126;-81
2021/05/13 09:25:13;;;;;;;2.83;1.43;;;;;;;32.58;13.54;98696.63;128214;1098;100748;-81
2021/05/13 09:28:00;;;;;;;9.63;1.83;;;;;;;32.01;13.92;98695.25;128235;1098;100806;-81
2021/05/13 09:30:48;;;;;;;5.50;0.90;;;;;;;31.04;14.30;98697.53;128099;1098;101511;-81
2021/05/13 09:34:05;;;;;;;10.93;1.10;;;;;;;30.46;15.08;98699.52;128050;1098;101164;-81
2021/05/13 09:36:57;;;;;;;4.03;2.47;;;;;;;30.44;15.68;98697.05;128045;1098;100839;-81
2021/05/13 09:39:50;;;;;;;5.20;2.10;;;;;;;30.74;15.51;98689.27;128021;1098;100738;-82
2021/05/13 09:42:38;;;;;;;3.80;1.90;;;;;;;30.98;15.57;98695.72;127997;1098;101043;-82
2021/05/13 09:45:44;;;;;;;7.33;1.53;;;;;;;31.04;14.80;98694.02;128066;1098;100837;-82
2021/05/13 09:48:41;;;;;;;7.17;1.33;;;;;;;30.17;15.18;98679.40;128101;1098;100872;-81
2021/05/13 09:51:35;;;;;;;3.67;1.40;;;;;;;29.97;15.42;98679.41;128255;1098;101257;-81
2021/05/13 09:54:22;;;;;;;5.57;1.87;;;;;;;29.88;15.15;98681.52;128023;1098;100806;-81
2021/05/13 09:57:10;;;;;;;4.90;0.80;;;;;;;30.02;15.80;98675.07;128117;1098;100724;-81
2021/05/13 09:59:57;;;;;;;7.30;1.40;;;;;;;30.04;16.21;98669.52;128044;1098;101501;-81
2021/05/13 10:02:45;;;;;;;2.83;1.60;;;;;;;29.57;15.67;98658.02;128210;1098;100965;-81
2021/05/13 10:05:33;;;;;;;5.30;1.70;;;;;;;29.04;16.27;98667.95;128034;1098;101082;-80
2021/05/13 10:08:22;;;;;;;2.83;1.10;;;;;;;28.87;16.70;98665.66;128012;1098;100800;-80
2021/05/13 10:11:14;;;;;;;1.27;0.90;;;;;;;28.64;16.49;98659.83;127994;1098;101053;-80
2021/05/13 10:14:02;;;;;;;3.67;1.10;;;;;;;28.55;16.50;98650.33;128231;1098;101019;-80
2021/05/13 10:16:53;;;;;;;5.70;1.30;;;;;;;28.47;16.63;98647.82;127983;1098;100739;-80
2021/05/13 10:19:48;;;;;;;3.73;1.37;;;;;;;28.49;16.97;98645.77;128041;1098;100839;-81
2021/05/13 10:22:36;;;;;;;9.03;1.33;;;;;;;28.56;17.16;98646.63;128034;1098;100675;-80
2021/05/13 10:25:33;;;;;;;4.33;1.00;;;;;;;28.30;16.81;98639.32;128044;1098;100697;-80
2021/05/13 10:28:28;;;;;;;3.80;1.00;;;;;;;28.40;17.05;98646.99;128010;1098;101483;-80
2021/05/13 10:31:16;;;;;;;3.00;1.30;;;;;;;27.84;17.71;98657.88;127988;1098;101103;-79
2021/05/13 10:34:03;;;;;;;5.77;1.63;;;;;;;27.42;18.72;98640.06;128008;1098;100901;-80
2021/05/13 10:37:30;;;;;;;4.87;2.40;;;;;;;27.57;18.10;98636.25;127999;1098;101005;-80
2021/05/13 10:40:43;;;;;;;6.67;4.07;;;;;;;27.79;18.96;98644.23;128244;1098;100713;-80
2021/05/13 10:43:36;;;;;;;4.85;2.88;;;;;;;28.06;19.03;98637.98;128191;1098;101920;-80
2021/05/13 10:46:31;;;;;;;2.33;1.17;;;;;;;27.97;18.23;98626.59;127963;1098;101003;-80
2021/05/13 10:49:20;;;;;;;9.13;2.47;;;;;;;27.79;18.75;98628.98;128031;1099;100810;-80
2021/05/13 10:52:40;;;;;;;5.27;2.00;;;;;;;27.95;18.78;98622.46;128001;1098;100799;-80
2021/05/13 10:55:37;;;;;;;4.97;3.20;;;;;;;27.78;19.03;98624.66;128069;1098;100872;-79
2021/05/13 10:59:04;;;;;;;6.70;3.50;;;;;;;27.52;19.21;98616.45;128231;1098;101943;-80
2021/05/13 11:01:56;;;;;;;5.97;3.93;;;;;;;27.77;19.85;98619.50;128201;1098;100646;-81
2021/05/13 11:04:45;;;;;;;6.17;3.60;;;;;;;27.76;19.22;98618.67;128073;1098;100886;-81
2021/05/13 11:07:33;;;;;;;12.93;8.10;;;;;;;27.73;19.66;98618.25;128080;1098;100718;-80
2021/05/13 11:10:21;;;;;;;7.27;3.63;;;;;;;27.79;19.86;98617.44;128224;1098;102054;-81
2021/05/13 11:13:15;;;;;;;5.13;2.50;;;;;;;27.26;19.36;98619.78;128001;1098;101990;-81
2021/05/13 11:16:03;;;;;;;3.20;2.10;;;;;;;26.90;20.00;98609.18;127987;1098;100916;-80
2021/05/13 11:19:24;;;;;;;6.90;2.17;;;;;;;26.42;20.02;98607.13;128190;1098;100644;-81
2021/05/13 11:22:11;;;;;;;7.27;3.20;;;;;;;26.08;20.96;98607.74;128228;1098;101536;-81
2021/05/13 11:24:59;;;;;;;11.80;7.03;;;;;;;26.27;21.34;98600.96;128016;1098;100677;-81
2021/05/13 11:27:47;;;;;;;8.67;5.00;;;;;;;26.45;21.25;98598.72;128223;1098;101951;-81
2021/05/13 11:30:35;;;;;;;10.10;2.30;;;;;;;26.30;20.56;98600.58;128084;1098;101072;-83
2021/05/13 11:33:23;;;;;;;6.10;1.63;;;;;;;25.68;20.16;98598.42;128094;1098;100698;-81
2021/05/13 11:36:13;;;;;;;6.77;1.70;;;;;;;25.15;20.95;98594.16;128064;1091;100773;-84
2021/05/13 11:39:10;;;;;;;1.73;1.30;;;;;;;24.85;21.46;98595.89;128032;1098;100770;-80
2021/05/13 11:42:01;;;;;;;4.17;2.10;;;;;;;24.67;22.31;98590.88;128189;1098;102433;-83
2021/05/13 11:45:01;;;;;;;16.17;9.53;;;;;;;24.60;22.84;98589.95;128205;1098;100975;-82
2021/05/13 11:47:49;;;;;;;7.37;2.47;;;;;;;24.65;22.54;98583.06;128169;1098;100775;-82
2021/05/13 11:50:36;;;;;;;7.30;4.23;;;;;;;24.70;23.18;98590.52;128222;1098;100769;-84
2021/05/13 11:53:25;;;;;;;8.90;4.73;;;;;;;24.60;22.89;98582.78;128043;1098;101075;-83
2021/05/13 11:56:14;;;;;;;5.13;2.10;;;;;;;24.47;22.59;98582.55;128066;1098;101963;-83
2021/05/13 11:59:03;;;;;;;4.23;2.43;;;;;;;24.23;22.62;98596.81;127985;1098;100880;-84
2021/05/13 12:01:51;;;;;;;13.93;8.10;;;;;;;24.19;23.31;98581.36;128032;1098;100830;-83
2021/05/13 12:04:39;;;;;;;9.20;5.47;;;;;;;24.37;23.57;98584.60;128064;1098;100656;-83
2021/05/13 12:07:29;;;;;;;7.57;4.70;;;;;;;24.60;23.04;98568.63;128040;1098;100898;-83
2021/05/13 12:10:30;;;;;;;8.37;2.90;;;;;;;24.80;23.10;98568.95;128025;1097;101471;-82
2021/05/13 12:13:18;;;;;;;6.90;3.00;;;;;;;24.98;23.06;98570.27;127999;1098;101253;-83
2021/05/13 12:16:09;;;;;;;11.53;6.37;;;;;;;25.00;22.60;98565.61;128131;1098;101063;-83
2021/05/13 12:19:06;;;;;;;13.60;4.57;;;;;;;25.07;22.82;98571.03;128099;1098;100810;-83
2021/05/13 12:21:58;;;;;;;8.37;3.67;;;;;;;25.16;22.76;98558.45;128027;1098;100880;-83
2021/05/13 12:24:48;;;;;;;6.23;2.57;;;;;;;25.00;22.24;98559.45;128056;1098;101495;-84
2021/05/13 12:27:36;;;;;;;3.13;2.03;;;;;;;25.01;22.14;98561.11;128019;1098;100908;-84
2021/05/13 12:30:25;;;;;;;8.67;3.50;;;;;;;25.13;22.59;98554.29;128065;1098;100886;-84
2021/05/13 12:33:28;;;;;;;6.50;2.83;;;;;;;25.37;22.73;98547.05;128202;1098;100808;-83
2021/05/13 12:36:15;;;;;;;3.57;2.10;;;;;;;25.20;21.22;98549.89;128223;1098;100723;-83
2021/05/13 12:39:04;;;;;;;4.53;1.50;;;;;;;24.76;20.74;98546.30;128246;1098;101549;-84
2021/05/13 12:41:53;;;;;;;8.40;2.27;;;;;;;24.36;20.75;98534.98;128008;1098;100832;-85
2021/05/13 12:44:41;;;;;;;7.40;2.37;;;;;;;24.10;21.08;98544.14;128037;1099;100850;-86
2021/05/13 12:47:28;;;;;;;7.07;3.30;;;;;;;24.03;21.79;98548.50;128011;1098;100714;-86
2021/05/13 12:50:16;;;;;;;9.07;5.27;;;;;;;24.07;22.08;98541.84;128085;1098;100771;-85
2021/05/13 12:53:11;;;;;;;6.20;2.53;;;;;;;24.14;21.76;98546.45;128055;1098;102583;-85
2021/05/13 12:55:59;;;;;;;9.17;3.00;;;;;;;24.09;22.11;98545.15;128204;1098;100660;-84
2021/05/13 12:58:47;;;;;;;5.77;2.73;;;;;;;24.17;22.37;98524.78;128239;1098;101219;-84
2021/05/13 13:01:41;;;;;;;3.37;1.80;;;;;;;24.27;22.08;98520.05;128039;1098;100838;-84
2021/05/13 13:04:49;;;;;;;4.17;2.33;;;;;;;24.14;21.65;98522.48;128067;1098;100705;-84
2021/05/13 13:07:39;;;;;;;5.70;3.33;;;;;;;24.01;22.30;98526.55;128042;1098;101948;-84
2021/05/13 13:10:35;;;;;;;11.87;6.97;;;;;;;24.09;22.62;98507.86;127994;1098;101876;-84
2021/05/13 13:13:25;;;;;;;8.07;3.80;;;;;;;24.20;22.77;98508.44;128039;1098;100898;-85
2021/05/13 13:16:35;;;;;;;;;;;;;;;;;;;;;